sensor_id;sensor_type;location;lat;lon;timestamp;P1;durP1;ratioP1;P2;durP2;ratioP2
19919;SDS011;10122;50.074;19.920;2024-01-30T00:01:26;67.75;;;31.70;;
19919;SDS011;10122;50.074;19.920;2024-01-30T00:03:51;70.07;;;30.98;;
19919;SDS011;10122;50.074;19.920;2024-01-30T00:06:20;68.72;;;30.27;;
19919;SDS011;10122;50.074;19.920;2024-01-30T00:08:47;75.65;;;30.02;;
19919;SDS011;10122;50.074;19.920;2024-01-30T00:11:14;70.85;;;29.83;;
19919;SDS011;10122;50.074;19.920;2024-01-30T00:13:40;76.57;;;31.15;;
19919;SDS011;10122;50.074;19.920;2024-01-30T00:16:07;68.35;;;30.05;;
19919;SDS011;10122;50.074;19.920;2024-01-30T00:18:34;65.97;;;29.73;;
19919;SDS011;10122;50.074;19.920;2024-01-30T00:20:59;63.67;;;28.23;;
19919;SDS011;10122;50.074;19.920;2024-01-30T00:23:25;71.35;;;31.10;;
19919;SDS011;10122;50.074;19.920;2024-01-30T00:25:51;63.35;;;29.05;;
19919;SDS011;10122;50.074;19.920;2024-01-30T00:28:16;72.47;;;30.50;;
19919;SDS011;10122;50.074;19.920;2024-01-30T00:30:42;67.47;;;29.48;;
19919;SDS011;10122;50.074;19.920;2024-01-30T00:33:08;63.30;;;28.35;;
19919;SDS011;10122;50.074;19.920;2024-01-30T00:35:34;61.08;;;29.80;;
19919;SDS011;10122;50.074;19.920;2024-01-30T00:38:00;62.63;;;28.05;;
19919;SDS011;10122;50.074;19.920;2024-01-30T00:40:26;72.25;;;29.83;;
19919;SDS011;10122;50.074;19.920;2024-01-30T00:42:51;69.95;;;31.05;;
19919;SDS011;10122;50.074;19.920;2024-01-30T00:45:17;73.03;;;31.70;;
19919;SDS011;10122;50.074;19.920;2024-01-30T00:47:43;67.07;;;30.55;;
19919;SDS011;10122;50.074;19.920;2024-01-30T00:50:09;76.45;;;31.75;;
19919;SDS011;10122;50.074;19.920;2024-01-30T00:52:36;84.88;;;31.05;;
19919;SDS011;10122;50.074;19.920;2024-01-30T00:55:04;61.83;;;30.98;;
19919;SDS011;10122;50.074;19.920;2024-01-30T00:57:30;69.20;;;31.38;;
19919;SDS011;10122;50.074;19.920;2024-01-30T00:59:55;76.65;;;32.10;;
19919;SDS011;10122;50.074;19.920;2024-01-30T01:02:22;76.85;;;32.05;;
19919;SDS011;10122;50.074;19.920;2024-01-30T01:04:47;71.45;;;32.15;;
19919;SDS011;10122;50.074;19.920;2024-01-30T01:07:13;74.45;;;32.33;;
19919;SDS011;10122;50.074;19.920;2024-01-30T01:09:38;70.80;;;30.83;;
19919;SDS011;10122;50.074;19.920;2024-01-30T01:12:04;67.35;;;31.08;;
19919;SDS011;10122;50.074;19.920;2024-01-30T01:14:30;82.80;;;31.27;;
19919;SDS011;10122;50.074;19.920;2024-01-30T01:16:56;71.97;;;32.70;;
19919;SDS011;10122;50.074;19.920;2024-01-30T01:19:21;67.43;;;32.22;;
19919;SDS011;10122;50.074;19.920;2024-01-30T01:21:47;72.30;;;30.92;;
19919;SDS011;10122;50.074;19.920;2024-01-30T01:24:13;79.13;;;31.95;;
19919;SDS011;10122;50.074;19.920;2024-01-30T01:26:39;78.13;;;32.03;;
19919;SDS011;10122;50.074;19.920;2024-01-30T01:29:05;83.10;;;33.83;;
19919;SDS011;10122;50.074;19.920;2024-01-30T01:31:38;73.55;;;32.17;;
19919;SDS011;10122;50.074;19.920;2024-01-30T01:34:10;79.65;;;31.63;;
19919;SDS011;10122;50.074;19.920;2024-01-30T01:36:36;68.10;;;28.55;;
19919;SDS011;10122;50.074;19.920;2024-01-30T01:39:02;75.30;;;32.38;;
19919;SDS011;10122;50.074;19.920;2024-01-30T01:41:31;75.28;;;32.28;;
19919;SDS011;10122;50.074;19.920;2024-01-30T01:43:58;72.45;;;31.40;;
19919;SDS011;10122;50.074;19.920;2024-01-30T01:46:27;81.18;;;33.35;;
19919;SDS011;10122;50.074;19.920;2024-01-30T01:48:57;66.80;;;30.27;;
19919;SDS011;10122;50.074;19.920;2024-01-30T01:51:23;68.40;;;31.00;;
19919;SDS011;10122;50.074;19.920;2024-01-30T01:53:52;78.68;;;32.28;;
19919;SDS011;10122;50.074;19.920;2024-01-30T01:56:19;73.03;;;30.45;;
19919;SDS011;10122;50.074;19.920;2024-01-30T01:58:45;71.10;;;29.92;;
19919;SDS011;10122;50.074;19.920;2024-01-30T02:01:12;77.00;;;31.10;;
19919;SDS011;10122;50.074;19.920;2024-01-30T02:03:39;80.43;;;29.92;;
19919;SDS011;10122;50.074;19.920;2024-01-30T02:06:06;69.55;;;29.85;;
19919;SDS011;10122;50.074;19.920;2024-01-30T02:08:32;75.15;;;30.80;;
19919;SDS011;10122;50.074;19.920;2024-01-30T02:10:58;75.53;;;31.63;;
19919;SDS011;10122;50.074;19.920;2024-01-30T02:13:24;72.00;;;30.85;;
19919;SDS011;10122;50.074;19.920;2024-01-30T02:15:53;67.65;;;30.73;;
19919;SDS011;10122;50.074;19.920;2024-01-30T02:18:19;73.22;;;30.83;;
19919;SDS011;10122;50.074;19.920;2024-01-30T02:20:46;69.30;;;29.83;;
19919;SDS011;10122;50.074;19.920;2024-01-30T02:23:12;75.72;;;31.75;;
19919;SDS011;10122;50.074;19.920;2024-01-30T02:25:41;76.95;;;32.42;;
19919;SDS011;10122;50.074;19.920;2024-01-30T02:28:10;72.70;;;32.08;;
19919;SDS011;10122;50.074;19.920;2024-01-30T02:30:39;68.60;;;31.30;;
19919;SDS011;10122;50.074;19.920;2024-01-30T02:33:05;79.13;;;33.35;;
19919;SDS011;10122;50.074;19.920;2024-01-30T02:35:30;76.85;;;30.90;;
19919;SDS011;10122;50.074;19.920;2024-01-30T02:37:56;73.53;;;31.58;;
19919;SDS011;10122;50.074;19.920;2024-01-30T02:40:22;84.75;;;33.30;;
19919;SDS011;10122;50.074;19.920;2024-01-30T02:42:47;89.38;;;36.50;;
19919;SDS011;10122;50.074;19.920;2024-01-30T02:45:13;77.00;;;33.60;;
19919;SDS011;10122;50.074;19.920;2024-01-30T02:47:39;97.05;;;37.00;;
19919;SDS011;10122;50.074;19.920;2024-01-30T02:50:05;78.32;;;32.80;;
19919;SDS011;10122;50.074;19.920;2024-01-30T02:52:31;83.03;;;33.45;;
19919;SDS011;10122;50.074;19.920;2024-01-30T02:54:57;74.85;;;32.95;;
19919;SDS011;10122;50.074;19.920;2024-01-30T02:57:23;75.40;;;33.17;;
19919;SDS011;10122;50.074;19.920;2024-01-30T02:59:49;76.90;;;32.70;;
19919;SDS011;10122;50.074;19.920;2024-01-30T03:02:15;79.85;;;34.25;;
19919;SDS011;10122;50.074;19.920;2024-01-30T03:04:41;81.28;;;36.60;;
19919;SDS011;10122;50.074;19.920;2024-01-30T03:07:07;86.35;;;35.00;;
19919;SDS011;10122;50.074;19.920;2024-01-30T03:09:33;76.57;;;34.88;;
19919;SDS011;10122;50.074;19.920;2024-01-30T03:11:59;82.90;;;35.28;;
19919;SDS011;10122;50.074;19.920;2024-01-30T03:14:26;86.40;;;35.85;;
19919;SDS011;10122;50.074;19.920;2024-01-30T03:16:51;94.18;;;37.97;;
19919;SDS011;10122;50.074;19.920;2024-01-30T03:19:17;80.22;;;35.55;;
19919;SDS011;10122;50.074;19.920;2024-01-30T03:21:43;80.97;;;35.08;;
19919;SDS011;10122;50.074;19.920;2024-01-30T03:24:09;95.13;;;37.10;;
19919;SDS011;10122;50.074;19.920;2024-01-30T03:26:35;93.10;;;38.53;;
19919;SDS011;10122;50.074;19.920;2024-01-30T03:29:01;105.63;;;40.53;;
19919;SDS011;10122;50.074;19.920;2024-01-30T03:31:26;89.63;;;37.85;;
19919;SDS011;10122;50.074;19.920;2024-01-30T03:33:52;81.90;;;36.63;;
19919;SDS011;10122;50.074;19.920;2024-01-30T03:36:18;88.45;;;38.53;;
19919;SDS011;10122;50.074;19.920;2024-01-30T03:38:43;107.50;;;40.43;;
19919;SDS011;10122;50.074;19.920;2024-01-30T03:41:09;95.13;;;39.33;;
19919;SDS011;10122;50.074;19.920;2024-01-30T03:43:35;90.70;;;38.10;;
19919;SDS011;10122;50.074;19.920;2024-01-30T03:46:01;96.37;;;37.13;;
19919;SDS011;10122;50.074;19.920;2024-01-30T03:48:28;86.00;;;35.10;;
19919;SDS011;10122;50.074;19.920;2024-01-30T03:50:54;72.32;;;34.03;;
19919;SDS011;10122;50.074;19.920;2024-01-30T03:53:20;81.03;;;33.63;;
19919;SDS011;10122;50.074;19.920;2024-01-30T03:55:45;81.18;;;35.03;;
19919;SDS011;10122;50.074;19.920;2024-01-30T03:58:11;85.00;;;35.50;;
19919;SDS011;10122;50.074;19.920;2024-01-30T04:00:37;80.70;;;33.92;;
19919;SDS011;10122;50.074;19.920;2024-01-30T04:03:03;83.90;;;34.85;;
19919;SDS011;10122;50.074;19.920;2024-01-30T04:05:28;87.53;;;35.73;;
19919;SDS011;10122;50.074;19.920;2024-01-30T04:07:54;78.22;;;34.28;;
19919;SDS011;10122;50.074;19.920;2024-01-30T04:10:20;81.15;;;34.50;;
19919;SDS011;10122;50.074;19.920;2024-01-30T04:12:45;78.68;;;35.03;;
19919;SDS011;10122;50.074;19.920;2024-01-30T04:15:11;78.88;;;31.73;;
19919;SDS011;10122;50.074;19.920;2024-01-30T04:17:38;78.25;;;32.95;;
19919;SDS011;10122;50.074;19.920;2024-01-30T04:20:05;83.03;;;31.88;;
19919;SDS011;10122;50.074;19.920;2024-01-30T04:22:31;72.23;;;31.87;;
19919;SDS011;10122;50.074;19.920;2024-01-30T04:24:56;71.67;;;31.13;;
19919;SDS011;10122;50.074;19.920;2024-01-30T04:27:22;86.85;;;33.15;;
19919;SDS011;10122;50.074;19.920;2024-01-30T04:29:48;74.20;;;31.67;;
19919;SDS011;10122;50.074;19.920;2024-01-30T04:32:14;76.28;;;31.00;;
19919;SDS011;10122;50.074;19.920;2024-01-30T04:34:39;76.65;;;33.15;;
19919;SDS011;10122;50.074;19.920;2024-01-30T04:37:05;74.18;;;31.15;;
19919;SDS011;10122;50.074;19.920;2024-01-30T04:39:32;81.93;;;34.67;;
19919;SDS011;10122;50.074;19.920;2024-01-30T04:41:58;76.65;;;33.08;;
19919;SDS011;10122;50.074;19.920;2024-01-30T04:44:24;77.20;;;34.00;;
19919;SDS011;10122;50.074;19.920;2024-01-30T04:46:50;82.20;;;33.90;;
19919;SDS011;10122;50.074;19.920;2024-01-30T04:49:15;78.25;;;32.88;;
19919;SDS011;10122;50.074;19.920;2024-01-30T04:51:41;75.85;;;32.95;;
19919;SDS011;10122;50.074;19.920;2024-01-30T04:54:07;98.82;;;36.13;;
19919;SDS011;10122;50.074;19.920;2024-01-30T04:56:33;89.97;;;34.45;;
19919;SDS011;10122;50.074;19.920;2024-01-30T04:58:59;80.03;;;34.15;;
19919;SDS011;10122;50.074;19.920;2024-01-30T05:01:25;86.00;;;36.90;;
19919;SDS011;10122;50.074;19.920;2024-01-30T05:03:51;92.22;;;37.78;;
19919;SDS011;10122;50.074;19.920;2024-01-30T05:06:26;92.60;;;36.90;;
19919;SDS011;10122;50.074;19.920;2024-01-30T05:08:52;96.55;;;37.33;;
19919;SDS011;10122;50.074;19.920;2024-01-30T05:11:18;86.23;;;35.90;;
19919;SDS011;10122;50.074;19.920;2024-01-30T05:13:43;96.25;;;36.83;;
19919;SDS011;10122;50.074;19.920;2024-01-30T05:16:09;93.85;;;38.75;;
19919;SDS011;10122;50.074;19.920;2024-01-30T05:18:35;100.10;;;38.43;;
19919;SDS011;10122;50.074;19.920;2024-01-30T05:21:01;105.10;;;38.40;;
19919;SDS011;10122;50.074;19.920;2024-01-30T05:23:27;93.63;;;36.08;;
19919;SDS011;10122;50.074;19.920;2024-01-30T05:25:53;99.27;;;37.03;;
19919;SDS011;10122;50.074;19.920;2024-01-30T05:28:19;93.20;;;37.87;;
19919;SDS011;10122;50.074;19.920;2024-01-30T05:30:44;103.60;;;37.37;;
19919;SDS011;10122;50.074;19.920;2024-01-30T05:33:10;96.40;;;37.90;;
19919;SDS011;10122;50.074;19.920;2024-01-30T05:35:37;90.28;;;36.22;;
19919;SDS011;10122;50.074;19.920;2024-01-30T05:38:03;94.40;;;37.17;;
19919;SDS011;10122;50.074;19.920;2024-01-30T05:40:29;86.93;;;37.00;;
19919;SDS011;10122;50.074;19.920;2024-01-30T05:42:58;98.23;;;36.50;;
19919;SDS011;10122;50.074;19.920;2024-01-30T05:45:26;86.20;;;37.07;;
19919;SDS011;10122;50.074;19.920;2024-01-30T05:47:52;102.15;;;37.92;;
19919;SDS011;10122;50.074;19.920;2024-01-30T05:50:18;88.27;;;36.73;;
19919;SDS011;10122;50.074;19.920;2024-01-30T05:52:44;102.67;;;37.63;;
19919;SDS011;10122;50.074;19.920;2024-01-30T05:55:15;94.27;;;37.07;;
19919;SDS011;10122;50.074;19.920;2024-01-30T05:57:41;92.07;;;36.83;;
19919;SDS011;10122;50.074;19.920;2024-01-30T06:00:06;105.97;;;37.27;;
19919;SDS011;10122;50.074;19.920;2024-01-30T06:02:33;87.10;;;36.42;;
19919;SDS011;10122;50.074;19.920;2024-01-30T06:04:59;103.73;;;36.67;;
19919;SDS011;10122;50.074;19.920;2024-01-30T06:07:25;107.40;;;37.70;;
19919;SDS011;10122;50.074;19.920;2024-01-30T06:09:50;88.77;;;37.03;;
19919;SDS011;10122;50.074;19.920;2024-01-30T06:12:16;88.00;;;34.97;;
19919;SDS011;10122;50.074;19.920;2024-01-30T06:14:41;81.10;;;34.97;;
19919;SDS011;10122;50.074;19.920;2024-01-30T06:17:08;90.30;;;35.77;;
19919;SDS011;10122;50.074;19.920;2024-01-30T06:19:34;87.10;;;36.60;;
19919;SDS011;10122;50.074;19.920;2024-01-30T06:21:59;96.23;;;37.97;;
19919;SDS011;10122;50.074;19.920;2024-01-30T06:24:25;101.27;;;35.80;;
19919;SDS011;10122;50.074;19.920;2024-01-30T06:26:52;92.60;;;35.63;;
19919;SDS011;10122;50.074;19.920;2024-01-30T06:29:18;81.57;;;34.33;;
19919;SDS011;10122;50.074;19.920;2024-01-30T06:31:44;86.80;;;35.40;;
19919;SDS011;10122;50.074;19.920;2024-01-30T06:34:09;87.13;;;35.10;;
19919;SDS011;10122;50.074;19.920;2024-01-30T06:36:36;85.33;;;35.40;;
19919;SDS011;10122;50.074;19.920;2024-01-30T06:39:02;91.60;;;36.17;;
19919;SDS011;10122;50.074;19.920;2024-01-30T06:41:28;88.20;;;35.40;;
19919;SDS011;10122;50.074;19.920;2024-01-30T06:43:54;74.40;;;33.43;;
19919;SDS011;10122;50.074;19.920;2024-01-30T06:46:20;91.13;;;37.03;;
19919;SDS011;10122;50.074;19.920;2024-01-30T06:48:46;95.67;;;36.17;;
19919;SDS011;10122;50.074;19.920;2024-01-30T06:51:12;93.80;;;38.37;;
19919;SDS011;10122;50.074;19.920;2024-01-30T06:53:38;84.90;;;35.60;;
19919;SDS011;10122;50.074;19.920;2024-01-30T06:56:04;102.17;;;37.97;;
19919;SDS011;10122;50.074;19.920;2024-01-30T06:58:30;95.33;;;37.63;;
19919;SDS011;10122;50.074;19.920;2024-01-30T07:00:55;90.22;;;36.17;;
19919;SDS011;10122;50.074;19.920;2024-01-30T07:03:21;94.70;;;36.40;;
19919;SDS011;10122;50.074;19.920;2024-01-30T07:05:47;94.07;;;37.72;;
19919;SDS011;10122;50.074;19.920;2024-01-30T07:08:13;96.85;;;36.78;;
19919;SDS011;10122;50.074;19.920;2024-01-30T07:10:39;91.43;;;35.45;;
19919;SDS011;10122;50.074;19.920;2024-01-30T07:13:13;98.95;;;35.65;;
19919;SDS011;10122;50.074;19.920;2024-01-30T07:15:41;83.10;;;36.13;;
19919;SDS011;10122;50.074;19.920;2024-01-30T07:18:07;89.10;;;35.40;;
19919;SDS011;10122;50.074;19.920;2024-01-30T07:20:32;96.40;;;37.40;;
19919;SDS011;10122;50.074;19.920;2024-01-30T07:22:58;92.50;;;37.80;;
19919;SDS011;10122;50.074;19.920;2024-01-30T07:25:24;88.60;;;35.50;;
19919;SDS011;10122;50.074;19.920;2024-01-30T07:27:54;95.25;;;35.70;;
19919;SDS011;10122;50.074;19.920;2024-01-30T07:30:20;94.40;;;35.13;;
19919;SDS011;10122;50.074;19.920;2024-01-30T07:32:46;86.57;;;37.70;;
19919;SDS011;10122;50.074;19.920;2024-01-30T07:35:12;90.97;;;35.50;;
19919;SDS011;10122;50.074;19.920;2024-01-30T07:37:41;83.27;;;35.60;;
19919;SDS011;10122;50.074;19.920;2024-01-30T07:40:06;91.25;;;37.67;;
19919;SDS011;10122;50.074;19.920;2024-01-30T07:42:32;88.67;;;37.50;;
19919;SDS011;10122;50.074;19.920;2024-01-30T07:44:59;96.90;;;36.37;;
19919;SDS011;10122;50.074;19.920;2024-01-30T07:47:25;89.33;;;36.77;;
19919;SDS011;10122;50.074;19.920;2024-01-30T07:49:51;94.30;;;38.83;;
19919;SDS011;10122;50.074;19.920;2024-01-30T07:52:17;105.93;;;40.77;;
19919;SDS011;10122;50.074;19.920;2024-01-30T07:54:43;87.47;;;37.23;;
19919;SDS011;10122;50.074;19.920;2024-01-30T07:57:09;87.10;;;37.77;;
19919;SDS011;10122;50.074;19.920;2024-01-30T07:59:34;92.17;;;38.43;;
19919;SDS011;10122;50.074;19.920;2024-01-30T08:02:00;97.47;;;39.10;;
19919;SDS011;10122;50.074;19.920;2024-01-30T08:04:26;88.67;;;37.33;;
19919;SDS011;10122;50.074;19.920;2024-01-30T08:06:51;93.33;;;38.13;;
19919;SDS011;10122;50.074;19.920;2024-01-30T08:09:17;78.63;;;34.70;;
19919;SDS011;10122;50.074;19.920;2024-01-30T08:11:43;85.78;;;35.38;;
19919;SDS011;10122;50.074;19.920;2024-01-30T08:14:09;83.05;;;35.78;;
19919;SDS011;10122;50.074;19.920;2024-01-30T08:16:34;89.00;;;37.47;;
19919;SDS011;10122;50.074;19.920;2024-01-30T08:19:00;73.95;;;33.40;;
19919;SDS011;10122;50.074;19.920;2024-01-30T08:21:26;90.03;;;35.05;;
19919;SDS011;10122;50.074;19.920;2024-01-30T08:23:52;85.78;;;37.55;;
19919;SDS011;10122;50.074;19.920;2024-01-30T08:26:17;90.75;;;35.95;;
19919;SDS011;10122;50.074;19.920;2024-01-30T08:28:43;87.55;;;37.72;;
19919;SDS011;10122;50.074;19.920;2024-01-30T08:31:10;94.47;;;38.08;;
19919;SDS011;10122;50.074;19.920;2024-01-30T08:33:37;91.88;;;38.55;;
19919;SDS011;10122;50.074;19.920;2024-01-30T08:36:02;92.13;;;38.65;;
19919;SDS011;10122;50.074;19.920;2024-01-30T08:38:28;91.93;;;35.50;;
19919;SDS011;10122;50.074;19.920;2024-01-30T08:40:54;82.78;;;35.95;;
19919;SDS011;10122;50.074;19.920;2024-01-30T08:43:21;89.32;;;37.53;;
19919;SDS011;10122;50.074;19.920;2024-01-30T08:45:46;89.38;;;36.67;;
19919;SDS011;10122;50.074;19.920;2024-01-30T08:48:12;85.22;;;37.03;;
19919;SDS011;10122;50.074;19.920;2024-01-30T08:50:38;72.65;;;34.92;;
19919;SDS011;10122;50.074;19.920;2024-01-30T08:53:04;76.38;;;33.83;;
19919;SDS011;10122;50.074;19.920;2024-01-30T08:55:29;80.93;;;35.10;;
19919;SDS011;10122;50.074;19.920;2024-01-30T08:57:55;73.90;;;33.03;;
19919;SDS011;10122;50.074;19.920;2024-01-30T09:00:21;80.63;;;34.72;;
19919;SDS011;10122;50.074;19.920;2024-01-30T09:02:46;71.70;;;33.83;;
19919;SDS011;10122;50.074;19.920;2024-01-30T09:05:12;68.47;;;32.55;;
19919;SDS011;10122;50.074;19.920;2024-01-30T09:07:37;66.10;;;31.67;;
19919;SDS011;10122;50.074;19.920;2024-01-30T09:10:03;77.40;;;34.47;;
19919;SDS011;10122;50.074;19.920;2024-01-30T09:15:22;68.50;;;31.30;;
19919;SDS011;10122;50.074;19.920;2024-01-30T09:17:48;60.10;;;29.65;;
19919;SDS011;10122;50.074;19.920;2024-01-30T09:20:13;55.05;;;28.38;;
19919;SDS011;10122;50.074;19.920;2024-01-30T09:22:39;56.83;;;28.35;;
19919;SDS011;10122;50.074;19.920;2024-01-30T09:25:05;58.28;;;28.50;;
19919;SDS011;10122;50.074;19.920;2024-01-30T09:27:30;66.38;;;32.22;;
19919;SDS011;10122;50.074;19.920;2024-01-30T09:29:56;60.10;;;29.38;;
19919;SDS011;10122;50.074;19.920;2024-01-30T09:32:22;57.05;;;28.48;;
19919;SDS011;10122;50.074;19.920;2024-01-30T09:34:47;64.72;;;31.27;;
19919;SDS011;10122;50.074;19.920;2024-01-30T09:37:13;61.63;;;30.05;;
19919;SDS011;10122;50.074;19.920;2024-01-30T09:39:40;64.90;;;30.88;;
19919;SDS011;10122;50.074;19.920;2024-01-30T09:42:18;67.18;;;31.38;;
19919;SDS011;10122;50.074;19.920;2024-01-30T09:44:51;64.85;;;32.13;;
19919;SDS011;10122;50.074;19.920;2024-01-30T09:47:18;63.00;;;32.15;;
19919;SDS011;10122;50.074;19.920;2024-01-30T09:49:44;64.75;;;31.00;;
19919;SDS011;10122;50.074;19.920;2024-01-30T09:52:11;71.53;;;32.00;;
19919;SDS011;10122;50.074;19.920;2024-01-30T09:54:37;63.50;;;31.35;;
19919;SDS011;10122;50.074;19.920;2024-01-30T09:57:04;53.83;;;26.33;;
19919;SDS011;10122;50.074;19.920;2024-01-30T09:59:30;61.53;;;29.63;;
19919;SDS011;10122;50.074;19.920;2024-01-30T10:01:55;55.55;;;29.42;;
19919;SDS011;10122;50.074;19.920;2024-01-30T10:04:22;54.58;;;28.45;;
19919;SDS011;10122;50.074;19.920;2024-01-30T10:06:48;52.42;;;26.52;;
19919;SDS011;10122;50.074;19.920;2024-01-30T10:09:13;45.00;;;22.83;;
19919;SDS011;10122;50.074;19.920;2024-01-30T10:11:39;39.22;;;21.83;;
19919;SDS011;10122;50.074;19.920;2024-01-30T10:14:05;43.83;;;22.27;;
19919;SDS011;10122;50.074;19.920;2024-01-30T10:16:30;41.63;;;22.52;;
19919;SDS011;10122;50.074;19.920;2024-01-30T10:18:56;36.13;;;21.30;;
19919;SDS011;10122;50.074;19.920;2024-01-30T10:21:22;38.00;;;21.48;;
19919;SDS011;10122;50.074;19.920;2024-01-30T10:23:47;38.95;;;20.70;;
19919;SDS011;10122;50.074;19.920;2024-01-30T10:26:15;36.90;;;20.27;;
19919;SDS011;10122;50.074;19.920;2024-01-30T10:28:42;34.13;;;19.17;;
19919;SDS011;10122;50.074;19.920;2024-01-30T10:31:08;38.17;;;19.90;;
19919;SDS011;10122;50.074;19.920;2024-01-30T10:33:34;35.75;;;20.13;;
19919;SDS011;10122;50.074;19.920;2024-01-30T10:36:00;33.10;;;20.83;;
19919;SDS011;10122;50.074;19.920;2024-01-30T10:38:30;34.30;;;20.27;;
19919;SDS011;10122;50.074;19.920;2024-01-30T10:40:57;31.98;;;20.20;;
19919;SDS011;10122;50.074;19.920;2024-01-30T10:43:24;30.60;;;19.77;;
19919;SDS011;10122;50.074;19.920;2024-01-30T10:45:57;33.05;;;19.65;;
19919;SDS011;10122;50.074;19.920;2024-01-30T10:48:43;31.88;;;19.90;;
19919;SDS011;10122;50.074;19.920;2024-01-30T10:51:13;30.20;;;19.98;;
19919;SDS011;10122;50.074;19.920;2024-01-30T10:53:40;29.17;;;18.77;;
19919;SDS011;10122;50.074;19.920;2024-01-30T10:56:08;29.80;;;18.35;;
19919;SDS011;10122;50.074;19.920;2024-01-30T10:58:35;27.40;;;17.83;;
19919;SDS011;10122;50.074;19.920;2024-01-30T11:01:00;27.70;;;18.30;;
19919;SDS011;10122;50.074;19.920;2024-01-30T11:03:26;25.63;;;17.67;;
19919;SDS011;10122;50.074;19.920;2024-01-30T11:05:52;28.42;;;17.85;;
19919;SDS011;10122;50.074;19.920;2024-01-30T11:08:24;26.95;;;18.05;;
19919;SDS011;10122;50.074;19.920;2024-01-30T11:10:56;31.55;;;17.90;;
19919;SDS011;10122;50.074;19.920;2024-01-30T11:13:31;31.20;;;18.58;;
19919;SDS011;10122;50.074;19.920;2024-01-30T11:16:00;28.75;;;18.70;;
19919;SDS011;10122;50.074;19.920;2024-01-30T11:18:28;28.98;;;18.60;;
19919;SDS011;10122;50.074;19.920;2024-01-30T11:21:01;32.92;;;19.25;;
19919;SDS011;10122;50.074;19.920;2024-01-30T11:23:30;26.92;;;18.45;;
19919;SDS011;10122;50.074;19.920;2024-01-30T11:25:58;32.35;;;19.80;;
19919;SDS011;10122;50.074;19.920;2024-01-30T11:28:23;28.13;;;19.40;;
19919;SDS011;10122;50.074;19.920;2024-01-30T11:30:49;32.63;;;20.15;;
19919;SDS011;10122;50.074;19.920;2024-01-30T11:33:16;31.88;;;20.80;;
19919;SDS011;10122;50.074;19.920;2024-01-30T11:35:56;27.70;;;19.27;;
19919;SDS011;10122;50.074;19.920;2024-01-30T11:38:22;33.00;;;18.92;;
19919;SDS011;10122;50.074;19.920;2024-01-30T11:40:50;32.97;;;20.60;;
19919;SDS011;10122;50.074;19.920;2024-01-30T11:43:18;30.80;;;19.65;;
19919;SDS011;10122;50.074;19.920;2024-01-30T11:45:44;28.42;;;19.10;;
19919;SDS011;10122;50.074;19.920;2024-01-30T11:48:11;31.88;;;20.38;;
19919;SDS011;10122;50.074;19.920;2024-01-30T11:50:38;31.52;;;20.02;;
19919;SDS011;10122;50.074;19.920;2024-01-30T11:53:04;32.15;;;20.05;;
19919;SDS011;10122;50.074;19.920;2024-01-30T11:55:31;32.97;;;20.05;;
19919;SDS011;10122;50.074;19.920;2024-01-30T11:57:57;33.25;;;20.27;;
19919;SDS011;10122;50.074;19.920;2024-01-30T12:00:23;33.13;;;20.10;;
19919;SDS011;10122;50.074;19.920;2024-01-30T12:02:53;33.78;;;20.13;;
19919;SDS011;10122;50.074;19.920;2024-01-30T12:05:24;32.92;;;20.13;;
19919;SDS011;10122;50.074;19.920;2024-01-30T12:07:50;33.92;;;20.83;;
19919;SDS011;10122;50.074;19.920;2024-01-30T12:10:16;36.72;;;21.30;;
19919;SDS011;10122;50.074;19.920;2024-01-30T12:12:44;35.30;;;20.73;;
19919;SDS011;10122;50.074;19.920;2024-01-30T12:15:14;34.72;;;20.98;;
19919;SDS011;10122;50.074;19.920;2024-01-30T12:17:40;34.08;;;20.25;;
19919;SDS011;10122;50.074;19.920;2024-01-30T12:20:07;34.28;;;21.58;;
19919;SDS011;10122;50.074;19.920;2024-01-30T12:22:36;34.45;;;20.23;;
19919;SDS011;10122;50.074;19.920;2024-01-30T12:25:13;32.15;;;20.67;;
19919;SDS011;10122;50.074;19.920;2024-01-30T12:27:41;39.20;;;21.15;;
19919;SDS011;10122;50.074;19.920;2024-01-30T12:30:09;35.47;;;20.80;;
19919;SDS011;10122;50.074;19.920;2024-01-30T12:32:36;35.30;;;20.60;;
19919;SDS011;10122;50.074;19.920;2024-01-30T12:35:08;36.08;;;20.48;;
19919;SDS011;10122;50.074;19.920;2024-01-30T12:37:35;34.13;;;20.90;;
19919;SDS011;10122;50.074;19.920;2024-01-30T12:40:01;32.58;;;20.42;;
19919;SDS011;10122;50.074;19.920;2024-01-30T12:42:27;34.00;;;20.25;;
19919;SDS011;10122;50.074;19.920;2024-01-30T12:44:53;33.20;;;21.05;;
19919;SDS011;10122;50.074;19.920;2024-01-30T12:47:21;30.35;;;20.77;;
19919;SDS011;10122;50.074;19.920;2024-01-30T12:49:46;32.15;;;20.73;;
19919;SDS011;10122;50.074;19.920;2024-01-30T12:52:14;31.13;;;20.02;;
19919;SDS011;10122;50.074;19.920;2024-01-30T12:54:41;28.83;;;19.73;;
19919;SDS011;10122;50.074;19.920;2024-01-30T12:57:07;31.33;;;19.67;;
19919;SDS011;10122;50.074;19.920;2024-01-30T12:59:33;36.22;;;19.40;;
19919;SDS011;10122;50.074;19.920;2024-01-30T13:02:00;32.20;;;20.08;;
19919;SDS011;10122;50.074;19.920;2024-01-30T13:04:26;30.95;;;19.40;;
19919;SDS011;10122;50.074;19.920;2024-01-30T13:06:52;29.95;;;19.58;;
19919;SDS011;10122;50.074;19.920;2024-01-30T13:09:18;31.45;;;19.67;;
19919;SDS011;10122;50.074;19.920;2024-01-30T13:11:44;32.95;;;20.17;;
19919;SDS011;10122;50.074;19.920;2024-01-30T13:14:10;33.63;;;20.48;;
19919;SDS011;10122;50.074;19.920;2024-01-30T13:16:36;32.50;;;20.02;;
19919;SDS011;10122;50.074;19.920;2024-01-30T13:19:01;37.38;;;19.48;;
19919;SDS011;10122;50.074;19.920;2024-01-30T13:21:27;32.10;;;19.63;;
19919;SDS011;10122;50.074;19.920;2024-01-30T13:23:54;28.48;;;18.92;;
19919;SDS011;10122;50.074;19.920;2024-01-30T13:26:20;33.20;;;19.13;;
19919;SDS011;10122;50.074;19.920;2024-01-30T13:28:46;32.60;;;19.25;;
19919;SDS011;10122;50.074;19.920;2024-01-30T13:31:12;32.55;;;20.15;;
19919;SDS011;10122;50.074;19.920;2024-01-30T13:33:41;26.42;;;18.88;;
19919;SDS011;10122;50.074;19.920;2024-01-30T13:36:07;28.92;;;19.13;;
19919;SDS011;10122;50.074;19.920;2024-01-30T13:38:35;33.92;;;19.92;;
19919;SDS011;10122;50.074;19.920;2024-01-30T13:41:01;34.58;;;19.75;;
19919;SDS011;10122;50.074;19.920;2024-01-30T13:43:27;29.75;;;19.15;;
19919;SDS011;10122;50.074;19.920;2024-01-30T13:45:53;29.98;;;18.98;;
19919;SDS011;10122;50.074;19.920;2024-01-30T13:48:19;33.03;;;19.45;;
19919;SDS011;10122;50.074;19.920;2024-01-30T13:50:45;30.60;;;19.73;;
19919;SDS011;10122;50.074;19.920;2024-01-30T13:53:11;35.95;;;20.75;;
19919;SDS011;10122;50.074;19.920;2024-01-30T13:55:36;31.30;;;20.05;;
19919;SDS011;10122;50.074;19.920;2024-01-30T13:58:04;30.85;;;20.50;;
19919;SDS011;10122;50.074;19.920;2024-01-30T14:00:30;33.10;;;20.48;;
19919;SDS011;10122;50.074;19.920;2024-01-30T14:02:56;36.15;;;21.60;;
19919;SDS011;10122;50.074;19.920;2024-01-30T14:05:23;33.78;;;21.15;;
19919;SDS011;10122;50.074;19.920;2024-01-30T14:07:50;34.47;;;20.77;;